Time;durP1;ratioP1;P1;durP2;ratioP2;P2;SDS_P1;SDS_P2;PMS_P1;PMS_P2;Temp;Humidity;BMP_temperature;BMP_pressure;BME280_temperature;BME280_humidity;BME280_pressure;Samples;Min_cycle;Max_cycle;Signal;HPM_P1;HPM_P2
2022/01/09 00:01:50;;;;;;;3.13;0.90;;;6.60;99.90;;;;;;5393308;22;20233;-94
2022/01/09 00:04:21;;;;;;;3.60;0.90;;;6.60;99.90;;;;;;5076427;28;20196;-93
2022/01/09 00:06:52;;;;;;;4.43;0.67;;;6.50;99.90;;;;;;5292248;22;20246;-93
2022/01/09 00:09:23;;;;;;;1.53;0.80;;;6.50;99.90;;;;;;5075987;28;20208;-93
2022/01/09 00:11:57;;;;;;;4.87;1.30;;;6.50;99.90;;;;;;5072579;28;20208;-93
2022/01/09 00:14:27;;;;;;;6.30;0.97;;;6.50;99.90;;;;;;5072974;28;20211;-94
2022/01/09 00:16:59;;;;;;;1.77;0.83;;;6.50;99.90;;;;;;5057879;28;20216;-94
2022/01/09 00:19:31;;;;;;;5.47;1.00;;;6.50;99.90;;;;;;5048886;28;20232;-94
2022/01/09 00:22:03;;;;;;;4.23;1.17;;;6.50;99.90;;;;;;5050553;28;20260;-93
2022/01/09 00:24:35;;;;;;;2.23;0.70;;;6.40;99.90;;;;;;5052491;28;20216;-92
2022/01/09 00:27:09;;;;;;;2.53;0.63;;;6.40;99.90;;;;;;5051973;28;20211;-92
2022/01/09 00:29:40;;;;;;;3.60;0.90;;;6.40;99.90;;;;;;5056984;28;20193;-92
2022/01/09 00:32:11;;;;;;;4.43;1.00;;;6.40;99.90;;;;;;5057018;28;20209;-92
2022/01/09 00:34:43;;;;;;;5.43;1.00;;;6.40;99.90;;;;;;5058011;28;20209;-93
2022/01/09 00:37:15;;;;;;;3.50;0.73;;;6.30;99.90;;;;;;5057689;28;20212;-94
2022/01/09 00:45:07;;;;;;;5.00;0.97;;;6.30;99.90;;;;;;5231750;22;20259;-93
2022/01/09 00:47:38;;;;;;;5.00;0.80;;;6.30;99.90;;;;;;5071576;28;20215;-94
2022/01/09 00:50:10;;;;;;;4.10;0.83;;;6.30;99.90;;;;;;5072160;28;20278;-93
2022/01/09 00:52:42;;;;;;;4.00;0.90;;;6.30;99.90;;;;;;5252181;22;20609;-92
2022/01/09 00:55:14;;;;;;;4.10;0.93;;;6.30;99.90;;;;;;5071454;28;20209;-94
2022/01/09 00:57:46;;;;;;;2.67;0.97;;;6.20;99.90;;;;;;5072654;28;20197;-93
2022/01/09 01:02:55;;;;;;;3.50;1.10;;;6.20;99.90;;;;;;6171791;22;20255;-94
2022/01/09 01:05:27;;;;;;;5.30;1.00;;;6.10;99.90;;;;;;5072574;28;20283;-93
2022/01/09 01:07:58;;;;;;;3.23;0.90;;;6.10;99.90;;;;;;5071866;28;20216;-94
2022/01/09 01:10:29;;;;;;;4.10;0.97;;;6.10;99.90;;;;;;5069391;28;20232;-93
2022/01/09 01:13:00;;;;;;;2.10;1.30;;;6.00;99.90;;;;;;5063408;28;20213;-94
2022/01/09 01:15:31;;;;;;;5.90;2.27;;;5.90;99.90;;;;;;5202467;23;20345;-93
2022/01/09 01:18:04;;;;;;;6.90;1.50;;;5.80;99.90;;;;;;5070316;28;20213;-94
2022/01/09 01:20:36;;;;;;;4.87;1.63;;;5.80;99.90;;;;;;5068528;28;20216;-94
2022/01/09 01:23:08;;;;;;;4.50;1.60;;;5.70;99.90;;;;;;5073366;28;20242;-93
2022/01/09 01:25:40;;;;;;;3.17;1.60;;;5.60;99.90;;;;;;5070891;28;20580;-94
2022/01/09 01:28:11;;;;;;;4.63;1.70;;;5.70;99.90;;;;;;5072779;28;20216;-93
2022/01/09 01:30:43;;;;;;;4.17;1.30;;;5.60;99.90;;;;;;5076433;28;20234;-93
2022/01/09 01:33:17;;;;;;;3.50;1.20;;;5.60;99.90;;;;;;5076500;28;20205;-93
2022/01/09 01:35:48;;;;;;;2.23;1.10;;;5.50;99.90;;;;;;5077217;28;20231;-93
2022/01/09 01:38:19;;;;;;;3.20;1.20;;;5.40;99.90;;;;;;5076915;28;20192;-93
2022/01/09 01:40:51;;;;;;;3.07;1.37;;;5.40;99.90;;;;;;5075150;28;20218;-93
2022/01/09 01:43:22;;;;;;;5.40;1.77;;;5.30;99.90;;;;;;5074472;28;20205;-93
2022/01/09 01:45:58;;;;;;;4.47;1.63;;;5.20;99.90;;;;;;5073021;28;20205;-93
2022/01/09 01:48:33;;;;;;;5.20;1.40;;;5.20;99.90;;;;;;5077287;28;20196;-92
2022/01/09 01:51:05;;;;;;;5.43;1.63;;;5.30;99.90;;;;;;5077195;28;20229;-93
2022/01/09 01:53:38;;;;;;;3.03;1.50;;;5.30;99.90;;;;;;5074183;28;20230;-92
2022/01/09 01:56:18;;;;;;;4.27;1.63;;;5.20;99.90;;;;;;5065638;28;20235;-94
2022/01/09 01:58:50;;;;;;;6.50;1.97;;;5.20;99.90;;;;;;5059551;28;20204;-94
2022/01/09 02:01:21;;;;;;;4.63;1.70;;;5.10;99.90;;;;;;5061876;28;20239;-93
2022/01/09 02:03:54;;;;;;;4.87;1.73;;;5.10;99.90;;;;;;5067797;28;20241;-93
2022/01/09 02:06:25;;;;;;;5.10;1.87;;;4.90;99.90;;;;;;5063067;28;20662;-93
2022/01/09 02:08:57;;;;;;;5.43;1.80;;;4.80;99.90;;;;;;5041223;28;20209;-93
2022/01/09 02:11:28;;;;;;;4.57;1.70;;;4.70;99.90;;;;;;5041741;28;20205;-93
2022/01/09 02:13:59;;;;;;;3.83;1.90;;;4.60;99.90;;;;;;5038232;28;20209;-94
2022/01/09 02:16:30;;;;;;;3.63;2.00;;;4.60;99.90;;;;;;5037588;28;20224;-93
2022/01/09 02:19:04;;;;;;;5.70;2.13;;;4.50;99.90;;;;;;5038998;28;20275;-94
2022/01/09 02:21:37;;;;;;;5.13;2.23;;;4.40;99.90;;;;;;5050852;28;20196;-93
2022/01/09 02:24:09;;;;;;;8.63;2.80;;;4.30;99.90;;;;;;5044014;28;20197;-93
2022/01/09 02:26:40;;;;;;;8.90;3.63;;;4.30;99.90;;;;;;5037890;28;20212;-93
2022/01/09 02:29:11;;;;;;;6.50;3.67;;;4.30;99.90;;;;;;5037522;28;20213;-93
2022/01/09 02:31:43;;;;;;;4.70;3.33;;;4.30;99.90;;;;;;5038063;28;20276;-93
2022/01/09 02:34:13;;;;;;;6.20;2.93;;;4.20;99.90;;;;;;5037817;28;20237;-93
2022/01/09 02:36:46;;;;;;;4.37;2.70;;;4.20;99.90;;;;;;5036488;28;20300;-93
2022/01/09 02:39:16;;;;;;;5.73;2.70;;;4.20;99.90;;;;;;5037696;28;20231;-93
2022/01/09 02:41:48;;;;;;;5.43;2.83;;;4.10;99.90;;;;;;5036043;28;20281;-93
2022/01/09 02:44:19;;;;;;;7.13;3.00;;;4.10;99.90;;;;;;5048597;28;20212;-93
2022/01/09 02:47:00;;;;;;;5.90;2.40;;;4.10;99.90;;;;;;5042575;28;20229;-92
2022/01/09 02:49:33;;;;;;;5.80;3.53;;;4.20;99.90;;;;;;5048941;28;20678;-92
2022/01/09 02:52:21;;;;;;;5.23;3.00;;;4.10;99.90;;;;;;5049913;28;20205;-93
2022/01/09 02:55:14;;;;;;;5.50;2.70;;;4.10;99.90;;;;;;5051192;28;20209;-92
2022/01/09 02:57:46;;;;;;;7.73;2.50;;;4.00;99.90;;;;;;5049481;28;20228;-93
2022/01/09 03:00:19;;;;;;;4.17;2.37;;;4.00;99.90;;;;;;5051423;28;20220;-92
2022/01/09 03:02:50;;;;;;;3.90;2.30;;;4.00;99.90;;;;;;5048499;28;20244;-94
2022/01/09 03:05:24;;;;;;;4.27;1.63;;;3.90;99.90;;;;;;5049994;28;20212;-93
2022/01/09 03:07:57;;;;;;;5.60;2.07;;;3.90;99.90;;;;;;5062380;28;20295;-93
2022/01/09 03:10:31;;;;;;;4.23;1.90;;;3.90;99.90;;;;;;5071681;28;20215;-94
2022/01/09 03:13:05;;;;;;;2.73;1.80;;;3.90;99.90;;;;;;5072321;28;20210;-93
2022/01/09 03:15:37;;;;;;;4.27;1.90;;;3.80;99.90;;;;;;5071158;28;20212;-93
2022/01/09 03:18:10;;;;;;;3.10;2.07;;;3.90;99.90;;;;;;5071142;28;20208;-92
2022/01/09 03:20:42;;;;;;;3.10;2.17;;;3.80;99.90;;;;;;5073035;28;20747;-93
2022/01/09 03:23:15;;;;;;;6.80;2.53;;;3.80;99.90;;;;;;5076092;28;20269;-93
2022/01/09 03:25:46;;;;;;;4.33;2.50;;;3.70;99.90;;;;;;5071031;28;20208;-93
2022/01/09 03:28:17;;;;;;;8.00;2.97;;;3.70;99.90;;;;;;5069347;28;20217;-94
2022/01/09 03:30:49;;;;;;;3.97;2.60;;;3.60;99.90;;;;;;5071785;28;20191;-92
2022/01/09 03:33:20;;;;;;;4.83;3.00;;;3.60;99.90;;;;;;5073265;28;20204;-94
2022/01/09 03:35:52;;;;;;;8.70;3.50;;;3.50;99.90;;;;;;5072733;28;20201;-93
2022/01/09 03:38:26;;;;;;;4.70;2.97;;;3.50;99.90;;;;;;5074031;28;20219;-93
2022/01/09 03:40:58;;;;;;;6.67;3.30;;;3.50;99.90;;;;;;5068756;28;20205;-93
2022/01/09 03:43:29;;;;;;;5.83;3.13;;;3.40;99.90;;;;;;5069243;28;20266;-93
2022/01/09 03:46:06;;;;;;;4.23;2.80;;;3.40;99.90;;;;;;5069849;28;20204;-93
2022/01/09 03:48:37;;;;;;;5.00;2.67;;;3.30;99.90;;;;;;5068269;28;20228;-93
2022/01/09 03:51:10;;;;;;;4.33;2.63;;;3.30;99.90;;;;;;5067253;28;20239;-93
2022/01/09 03:53:43;;;;;;;5.17;2.77;;;3.20;99.90;;;;;;5047050;28;20236;-91
2022/01/09 03:56:15;;;;;;;5.43;3.30;;;3.20;99.90;;;;;;5051679;28;20213;-92
2022/01/09 03:58:47;;;;;;;5.83;2.90;;;3.10;99.90;;;;;;5051736;28;20208;-93
2022/01/09 04:01:21;;;;;;;4.23;2.87;;;3.10;99.90;;;;;;5048112;28;20215;-93
2022/01/09 04:03:52;;;;;;;5.40;2.60;;;3.00;99.90;;;;;;5045905;28;20220;-94
2022/01/09 04:06:24;;;;;;;6.47;2.70;;;3.00;99.90;;;;;;5034846;28;20216;-92
2022/01/09 04:09:06;;;;;;;5.17;2.93;;;3.00;99.90;;;;;;5044627;28;20236;-93
2022/01/09 04:11:39;;;;;;;4.17;3.03;;;2.90;99.90;;;;;;5052309;28;20929;-93
2022/01/09 04:14:10;;;;;;;5.40;2.80;;;2.90;99.90;;;;;;5066945;28;20354;-94
2022/01/09 04:16:43;;;;;;;6.07;2.60;;;2.90;99.90;;;;;;5065410;28;20239;-94
2022/01/09 04:19:15;;;;;;;5.37;2.93;;;2.90;99.90;;;;;;4716683;28;10000393;-94
2022/01/09 04:21:46;;;;;;;8.07;4.00;;;2.90;99.90;;;;;;5072394;28;20208;-94
2022/01/09 04:24:19;;;;;;;6.77;4.30;;;2.80;99.90;;;;;;5112881;22;20251;-93
2022/01/09 04:26:50;;;;;;;7.13;4.50;;;2.80;99.90;;;;;;5091480;28;20199;-92
2022/01/09 04:29:22;;;;;;;9.57;4.50;;;2.80;99.90;;;;;;5091863;28;20212;-93
2022/01/09 04:31:53;;;;;;;5.67;4.80;;;2.80;99.90;;;;;;5091870;28;20661;-95
2022/01/09 04:34:25;;;;;;;8.50;5.30;;;2.80;99.90;;;;;;5092677;28;20195;-93
2022/01/09 04:36:59;;;;;;;6.20;4.53;;;2.80;99.90;;;;;;5090194;28;20219;-93
2022/01/09 04:39:34;;;;;;;7.00;4.93;;;2.80;99.90;;;;;;5091180;28;20196;-93
2022/01/09 04:42:07;;;;;;;8.37;5.03;;;2.80;99.90;;;;;;5093625;28;20218;-93
2022/01/09 04:44:39;;;;;;;9.60;5.40;;;2.70;99.90;;;;;;5094035;28;20227;-94
2022/01/09 04:47:14;;;;;;;11.30;7.23;;;2.70;99.90;;;;;;5091980;28;20192;-93
2022/01/09 04:49:47;;;;;;;12.57;6.80;;;2.70;99.90;;;;;;5091669;28;20203;-93
2022/01/09 04:52:24;;;;;;;14.20;8.23;;;2.70;99.90;;;;;;5093389;28;20204;-93
2022/01/09 04:54:58;;;;;;;12.73;7.37;;;2.70;99.90;;;;;;5095113;28;20210;-93
2022/01/09 04:57:29;;;;;;;12.53;6.43;;;2.70;99.90;;;;;;5094160;28;20223;-93
2022/01/09 05:00:00;;;;;;;10.97;6.70;;;2.60;99.90;;;;;;5090695;28;20231;-90
2022/01/09 05:02:32;;;;;;;10.77;6.80;;;2.60;99.90;;;;;;5090885;28;20231;-93
2022/01/09 05:05:04;;;;;;;10.83;5.87;;;2.60;99.90;;;;;;5091033;28;20239;-94
2022/01/09 05:07:35;;;;;;;7.63;4.70;;;2.60;99.90;;;;;;5090177;28;20235;-92
2022/01/09 05:10:09;;;;;;;8.03;4.70;;;2.60;99.90;;;;;;5091687;28;20207;-92
2022/01/09 05:12:41;;;;;;;7.87;4.10;;;2.60;99.90;;;;;;5090873;28;20207;-93
2022/01/09 05:15:13;;;;;;;4.13;2.80;;;2.60;99.90;;;;;;5093878;28;20218;-92
2022/01/09 05:17:44;;;;;;;4.93;3.03;;;2.60;99.90;;;;;;5091248;28;20204;-93
2022/01/09 05:20:16;;;;;;;3.53;2.63;;;2.50;99.90;;;;;;5090736;28;20633;-93
2022/01/09 05:22:49;;;;;;;3.57;2.23;;;2.50;99.90;;;;;;5090472;28;20212;-93
2022/01/09 05:25:23;;;;;;;7.43;2.60;;;2.50;99.90;;;;;;5091155;28;20227;-93
2022/01/09 05:27:54;;;;;;;5.07;2.17;;;2.50;99.90;;;;;;5085553;28;20235;-93
2022/01/09 05:30:25;;;;;;;4.40;2.57;;;2.50;99.90;;;;;;5089752;28;20207;-93
2022/01/09 05:32:56;;;;;;;3.93;2.20;;;2.50;99.90;;;;;;5085039;28;20240;-92
2022/01/09 05:35:27;;;;;;;3.60;2.30;;;2.60;99.90;;;;;;5081941;28;20208;-93
2022/01/09 05:37:58;;;;;;;2.10;1.90;;;2.60;99.90;;;;;;5077525;28;20265;-91
2022/01/09 05:40:31;;;;;;;2.63;1.87;;;2.60;99.90;;;;;;5089913;28;20207;-93
2022/01/09 05:43:02;;;;;;;3.97;2.20;;;2.60;99.90;;;;;;5096640;28;20191;-93
2022/01/09 05:45:33;;;;;;;2.77;2.00;;;2.60;99.90;;;;;;5094322;28;20226;-93
2022/01/09 05:48:04;;;;;;;2.10;1.80;;;2.50;99.90;;;;;;5077605;28;20291;-93
2022/01/09 05:50:35;;;;;;;3.17;2.13;;;2.50;99.90;;;;;;5078134;28;20282;-92
2022/01/09 05:53:07;;;;;;;5.33;2.30;;;2.50;99.90;;;;;;5077485;28;20272;-93
2022/01/09 05:55:40;;;;;;;3.40;2.30;;;2.50;99.90;;;;;;5082117;28;20199;-94
2022/01/09 05:58:11;;;;;;;4.40;2.37;;;2.50;99.90;;;;;;5078606;28;20203;-92
2022/01/09 06:00:42;;;;;;;4.27;2.93;;;2.50;99.90;;;;;;5077520;28;20207;-93
2022/01/09 06:03:13;;;;;;;3.83;2.97;;;2.40;99.90;;;;;;5091946;28;20241;-92
2022/01/09 06:05:44;;;;;;;6.03;2.70;;;2.30;99.90;;;;;;5080608;28;20211;-94
2022/01/09 06:08:16;;;;;;;6.57;2.30;;;2.30;99.90;;;;;;5081826;28;20200;-93
2022/01/09 06:10:48;;;;;;;4.00;2.40;;;2.20;99.90;;;;;;5085870;28;20223;-94
2022/01/09 06:13:20;;;;;;;3.97;2.80;;;2.20;99.90;;;;;;5078456;28;20238;-95
2022/01/09 06:15:54;;;;;;;3.77;2.40;;;2.10;99.90;;;;;;5076644;28;20277;-94
2022/01/09 06:18:25;;;;;;;2.57;2.27;;;2.10;99.90;;;;;;5076491;28;20257;-94
2022/01/09 06:20:56;;;;;;;4.10;2.57;;;2.10;99.90;;;;;;5079308;28;20275;-92
2022/01/09 06:23:28;;;;;;;4.57;2.43;;;2.20;99.90;;;;;;5076342;28;20221;-93
2022/01/09 06:26:00;;;;;;;4.37;2.80;;;2.10;99.90;;;;;;5079476;28;20253;-93
2022/01/09 06:28:32;;;;;;;5.93;3.03;;;2.10;99.90;;;;;;5075586;28;20254;-94
2022/01/09 06:31:02;;;;;;;3.53;2.67;;;2.10;99.90;;;;;;5075991;28;20238;-94
2022/01/09 06:33:33;;;;;;;5.33;2.70;;;2.10;99.90;;;;;;5075959;28;20579;-93
2022/01/09 06:36:05;;;;;;;5.47;2.30;;;2.10;99.90;;;;;;5086083;28;20207;-93
2022/01/09 06:38:37;;;;;;;3.50;2.33;;;2.10;99.90;;;;;;5090435;28;20199;-92
2022/01/09 06:41:12;;;;;;;4.33;2.70;;;2.00;99.90;;;;;;5089700;28;20267;-93
2022/01/09 06:43:44;;;;;;;3.23;2.43;;;2.00;99.90;;;;;;5089002;28;20198;-93
2022/01/09 06:46:15;;;;;;;5.83;2.33;;;1.90;99.90;;;;;;5089418;28;20214;-92
2022/01/09 06:48:46;;;;;;;2.80;2.07;;;1.90;99.90;;;;;;5086088;28;20208;-94
2022/01/09 06:51:17;;;;;;;2.80;1.77;;;1.80;99.90;;;;;;5081678;28;20211;-93
2022/01/09 06:53:48;;;;;;;3.93;1.90;;;1.80;99.90;;;;;;5076702;28;20293;-93
2022/01/09 06:56:22;;;;;;;4.70;2.53;;;1.80;99.90;;;;;;5075023;28;20223;-93
2022/01/09 06:58:53;;;;;;;4.63;2.20;;;1.80;99.90;;;;;;5075174;28;20290;-93
2022/01/09 07:01:24;;;;;;;3.70;2.40;;;1.80;99.90;;;;;;5075840;28;20616;-93
2022/01/09 07:03:54;;;;;;;3.97;2.13;;;1.70;99.90;;;;;;5078415;28;20226;-93
2022/01/09 07:06:26;;;;;;;3.20;2.00;;;1.70;99.90;;;;;;5074698;28;20649;-93
2022/01/09 07:08:57;;;;;;;3.33;2.20;;;1.70;99.90;;;;;;5057641;28;20597;-94
2022/01/09 07:11:30;;;;;;;2.67;2.20;;;1.70;99.90;;;;;;5059229;28;20264;-94
2022/01/09 07:14:01;;;;;;;3.67;2.57;;;1.70;99.90;;;;;;5058303;28;20302;-95
2022/01/09 07:16:35;;;;;;;7.50;2.83;;;1.70;99.90;;;;;;5054014;28;20212;-94
2022/01/09 07:19:06;;;;;;;2.77;2.27;;;1.60;99.90;;;;;;5058192;28;20208;-94
2022/01/09 07:21:37;;;;;;;3.90;2.30;;;1.60;99.90;;;;;;5056507;28;20257;-94
2022/01/09 07:24:08;;;;;;;2.93;1.80;;;1.50;99.90;;;;;;5073981;28;20243;-94
2022/01/09 07:26:40;;;;;;;2.70;1.60;;;1.60;99.90;;;;;;5057683;28;20204;-94
2022/01/09 07:29:12;;;;;;;2.37;1.87;;;1.60;99.90;;;;;;5054843;28;20591;-94
2022/01/09 07:31:43;;;;;;;4.50;2.17;;;1.50;99.90;;;;;;5073082;28;20258;-94
2022/01/09 07:34:14;;;;;;;1.50;1.37;;;1.50;99.90;;;;;;5056293;28;20240;-94
2022/01/09 07:36:45;;;;;;;4.63;2.03;;;1.50;99.90;;;;;;5072439;28;20258;-95
2022/01/09 07:39:17;;;;;;;1.90;1.67;;;1.40;99.90;;;;;;5075783;28;20227;-95
2022/01/09 07:41:50;;;;;;;2.73;1.80;;;1.40;99.90;;;;;;5075815;28;20207;-94
2022/01/09 07:44:21;;;;;;;3.87;1.90;;;1.40;99.90;;;;;;5075279;28;20261;-94
2022/01/09 07:46:57;;;;;;;5.30;1.67;;;1.40;99.90;;;;;;5074329;28;20203;-94
2022/01/09 07:49:31;;;;;;;1.90;1.60;;;1.40;99.90;;;;;;5075597;28;20246;-93
2022/01/09 07:52:02;;;;;;;3.47;2.10;;;1.40;99.90;;;;;;5076190;28;20238;-93
2022/01/09 07:54:33;;;;;;;3.57;1.80;;;1.40;99.90;;;;;;5079983;28;20214;-92
2022/01/09 07:57:07;;;;;;;3.70;1.43;;;1.40;99.90;;;;;;5079137;28;20259;-92
2022/01/09 07:59:38;;;;;;;4.00;2.00;;;1.40;99.90;;;;;;5095695;28;20206;-93
2022/01/09 08:02:09;;;;;;;4.33;1.87;;;1.40;99.90;;;;;;5097203;28;20229;-94
2022/01/09 08:04:40;;;;;;;2.47;2.00;;;1.40;99.90;;;;;;5097099;28;20247;-94
2022/01/09 08:07:13;;;;;;;2.17;1.77;;;1.40;99.90;;;;;;5079806;28;20207;-94
2022/01/09 08:09:45;;;;;;;3.47;2.10;;;1.40;99.90;;;;;;5080493;28;20212;-93
2022/01/09 08:12:17;;;;;;;3.63;1.90;;;1.40;99.90;;;;;;5082347;28;20963;-93
2022/01/09 08:14:48;;;;;;;3.43;1.73;;;1.30;99.90;;;;;;5081738;28;20310;-93
2022/01/09 08:17:19;;;;;;;1.93;1.37;;;1.40;99.90;;;;;;5079984;28;20200;-93
2022/01/09 08:19:50;;;;;;;4.13;1.60;;;1.40;99.90;;;;;;5081127;28;20204;-95
2022/01/09 08:22:21;;;;;;;2.77;1.47;;;1.40;99.90;;;;;;5071407;28;20212;-94
2022/01/09 08:24:52;;;;;;;2.73;1.63;;;1.40;99.90;;;;;;5062463;28;20267;-93
2022/01/09 08:27:25;;;;;;;2.93;1.30;;;1.40;99.90;;;;;;5064114;28;20231;-94
2022/01/09 08:29:55;;;;;;;1.97;1.17;;;1.40;99.90;;;;;;5058958;28;20626;-94
2022/01/09 08:32:26;;;;;;;2.23;1.27;;;1.40;99.90;;;;;;5059256;28;20267;-94
2022/01/09 08:34:57;;;;;;;3.23;1.37;;;1.40;99.90;;;;;;5060581;28;20222;-93
2022/01/09 08:37:28;;;;;;;3.23;1.50;;;1.40;99.90;;;;;;5058824;28;20204;-94
2022/01/09 08:39:59;;;;;;;2.70;1.73;;;1.40;99.90;;;;;;5062892;28;20197;-94
2022/01/09 08:42:39;;;;;;;5.07;1.20;;;1.40;99.90;;;;;;5064103;28;20200;-96
2022/01/09 08:45:11;;;;;;;2.03;1.60;;;1.40;99.90;;;;;;5066409;28;20247;-95
2022/01/09 08:47:42;;;;;;;2.20;1.27;;;1.30;99.90;;;;;;5063144;28;20211;-94
2022/01/09 08:50:17;;;;;;;2.70;1.50;;;1.30;99.90;;;;;;5058496;28;20235;-93
2022/01/09 08:52:48;;;;;;;3.40;1.47;;;1.30;99.90;;;;;;5058442;28;20226;-95
2022/01/09 08:55:19;;;;;;;1.80;1.50;;;1.30;99.90;;;;;;5058316;28;20247;-94
2022/01/09 08:57:52;;;;;;;3.67;1.50;;;1.30;99.90;;;;;;5057802;28;20629;-95
2022/01/09 09:00:23;;;;;;;2.00;1.30;;;1.20;99.90;;;;;;5058225;28;20297;-94
2022/01/09 09:02:54;;;;;;;2.00;1.30;;;1.20;99.90;;;;;;5058530;28;20290;-94
2022/01/09 09:05:25;;;;;;;1.60;1.10;;;1.20;99.90;;;;;;5057375;28;20317;-95
2022/01/09 09:07:57;;;;;;;1.90;1.50;;;1.20;99.90;;;;;;5068924;28;20203;-93
2022/01/09 09:10:28;;;;;;;1.90;1.50;;;1.20;99.90;;;;;;5078298;28;20202;-93
2022/01/09 09:13:02;;;;;;;2.70;1.47;;;1.30;99.90;;;;;;5077902;28;20215;-94
2022/01/09 09:15:32;;;;;;;2.13;1.47;;;1.20;99.90;;;;;;5076667;28;20243;-93
2022/01/09 09:18:03;;;;;;;1.77;1.27;;;1.20;99.90;;;;;;5077014;28;20568;-94
2022/01/09 09:20:34;;;;;;;1.80;1.40;;;1.20;99.90;;;;;;5077550;28;20210;-95
2022/01/09 09:23:05;;;;;;;1.70;1.40;;;1.20;99.90;;;;;;5077563;28;20245;-92
2022/01/09 09:25:36;;;;;;;2.67;1.40;;;1.20;99.90;;;;;;5080420;28;20264;-94
2022/01/09 09:28:10;;;;;;;2.73;1.40;;;1.20;99.90;;;;;;5076664;28;20610;-95
2022/01/09 09:30:41;;;;;;;1.60;1.40;;;1.10;99.90;;;;;;5077168;28;20246;-94
2022/01/09 09:33:13;;;;;;;2.37;1.70;;;1.10;99.90;;;;;;5077095;28;20516;-95
2022/01/09 09:35:43;;;;;;;3.23;1.53;;;1.10;99.90;;;;;;5077966;28;20315;-94
2022/01/09 09:38:14;;;;;;;3.60;1.67;;;1.10;99.90;;;;;;5062089;28;20247;-95
2022/01/09 09:40:46;;;;;;;4.73;1.60;;;1.00;99.90;;;;;;5057981;28;20219;-94
2022/01/09 09:43:19;;;;;;;2.47;1.80;;;1.00;99.90;;;;;;5059781;28;20704;-94
2022/01/09 09:45:52;;;;;;;3.53;2.27;;;0.90;99.90;;;;;;5068424;28;20249;-94
2022/01/09 09:48:24;;;;;;;4.33;2.60;;;0.90;99.90;;;;;;5079572;28;20215;-94
2022/01/09 09:50:56;;;;;;;4.37;2.43;;;0.90;99.90;;;;;;5077632;28;20318;-94
2022/01/09 09:53:26;;;;;;;5.00;3.30;;;0.90;99.90;;;;;;5076082;28;20208;-94
2022/01/09 09:55:58;;;;;;;6.93;4.77;;;0.90;99.90;;;;;;5078696;28;20207;-95
2022/01/09 09:58:30;;;;;;;6.17;4.57;;;0.90;99.90;;;;;;5076503;28;20288;-95
2022/01/09 10:01:01;;;;;;;6.27;4.47;;;1.00;99.90;;;;;;5077567;28;20230;-94
2022/01/09 10:03:34;;;;;;;6.50;4.60;;;1.00;99.90;;;;;;5076730;28;20215;-94
2022/01/09 10:06:06;;;;;;;8.67;5.20;;;1.00;99.90;;;;;;5078629;28;20257;-94
2022/01/09 10:08:38;;;;;;;11.23;7.10;;;1.00;99.90;;;;;;5086970;28;20230;-94
2022/01/09 10:11:17;;;;;;;13.70;8.37;;;1.00;99.90;;;;;;5085988;28;20206;-94
2022/01/09 10:14:14;;;;;;;13.43;7.87;;;1.00;99.90;;;;;;5083561;28;20218;-94
2022/01/09 10:17:12;;;;;;;12.33;8.23;;;1.00;99.90;;;;;;5090437;28;20235;-92
2022/01/09 10:19:51;;;;;;;14.57;8.87;;;1.10;99.90;;;;;;5095288;28;20200;-93
2022/01/09 10:22:32;;;;;;;12.63;7.80;;;1.10;99.90;;;;;;5095207;28;20222;-94
2022/01/09 10:25:32;;;;;;;11.47;7.40;;;1.10;99.90;;;;;;5082225;28;20271;-94
2022/01/09 10:28:05;;;;;;;9.17;6.57;;;1.10;99.90;;;;;;5044890;28;20230;-95
2022/01/09 10:30:41;;;;;;;9.13;6.27;;;1.00;99.90;;;;;;5080409;28;20732;-95
2022/01/09 10:33:14;;;;;;;8.47;6.10;;;1.00;99.90;;;;;;5083500;28;20227;-95
2022/01/09 10:35:46;;;;;;;7.67;5.63;;;1.00;99.90;;;;;;5089589;28;20217;-96
2022/01/09 10:38:22;;;;;;;6.87;5.17;;;1.00;99.90;;;;;;5096374;28;20213;-94
2022/01/09 10:40:57;;;;;;;6.27;5.20;;;1.00;99.90;;;;;;5092040;28;20238;-94
2022/01/09 10:43:34;;;;;;;5.83;4.53;;;1.00;99.90;;;;;;5090193;28;20203;-94
2022/01/09 10:46:07;;;;;;;4.03;3.23;;;1.00;99.90;;;;;;5094996;28;20215;-94
2022/01/09 10:48:41;;;;;;;3.10;2.43;;;1.00;99.90;;;;;;5094197;28;20198;-93
2022/01/09 10:51:13;;;;;;;2.83;2.40;;;1.00;99.90;;;;;;5094116;28;20280;-95
2022/01/09 10:53:45;;;;;;;3.23;2.20;;;1.00;99.90;;;;;;5094119;28;20204;-94
2022/01/09 10:56:24;;;;;;;2.27;2.07;;;1.00;99.90;;;;;;5088709;28;20199;-95
2022/01/09 10:58:56;;;;;;;2.00;1.80;;;1.00;99.90;;;;;;5088054;28;20695;-94
2022/01/09 11:01:31;;;;;;;2.43;1.87;;;1.00;99.90;;;;;;5088763;28;20207;-94
2022/01/09 11:04:08;;;;;;;2.43;2.00;;;1.00;99.90;;;;;;5092072;28;20202;-95
2022/01/09 11:06:43;;;;;;;3.73;1.50;;;1.00;99.90;;;;;;5086984;28;20227;-93
2022/01/09 11:09:14;;;;;;;1.97;1.53;;;0.90;99.90;;;;;;5086352;28;20210;-94
2022/01/09 11:11:47;;;;;;;1.90;1.37;;;0.90;99.90;;;;;;5086892;28;20202;-93
2022/01/09 11:14:21;;;;;;;2.30;1.67;;;1.00;99.90;;;;;;5087092;28;20259;-94
2022/01/09 11:16:54;;;;;;;1.60;1.13;;;1.00;99.90;;;;;;5086701;28;20257;-94
2022/01/09 11:19:27;;;;;;;3.37;1.60;;;1.00;99.90;;;;;;5088958;28;20208;-94
2022/01/09 11:22:00;;;;;;;2.67;1.43;;;1.00;99.90;;;;;;5087966;28;20215;-94
2022/01/09 11:24:44;;;;;;;1.20;1.10;;;1.00;99.90;;;;;;5082191;28;20222;-93
2022/01/09 11:27:25;;;;;;;1.90;1.40;;;1.00;99.90;;;;;;5081218;28;20271;-94
2022/01/09 11:30:06;;;;;;;1.27;1.00;;;1.00;99.90;;;;;;5082110;28;20199;-95
2022/01/09 11:32:48;;;;;;;1.37;1.03;;;1.00;99.90;;;;;;5084700;28;20203;-94
2022/01/09 11:35:33;;;;;;;1.27;0.97;;;1.00;99.90;;;;;;5084751;28;20199;-93
2022/01/09 11:38:16;;;;;;;2.17;1.47;;;1.00;99.90;;;;;;5083556;28;20317;-92
2022/01/09 11:40:47;;;;;;;3.47;1.23;;;1.00;99.90;;;;;;5083941;28;20246;-92
2022/01/09 11:43:20;;;;;;;3.47;1.50;;;1.00;99.90;;;;;;5085025;28;20242;-94
2022/01/09 11:46:00;;;;;;;2.07;1.00;;;1.00;99.90;;;;;;5082183;28;20273;-94
2022/01/09 11:48:59;;;;;;;1.63;1.20;;;1.00;99.90;;;;;;5080989;28;20692;-94
2022/01/09 11:51:31;;;;;;;1.80;1.30;;;1.00;99.90;;;;;;5079779;28;20214;-94
2022/01/09 11:54:12;;;;;;;1.53;1.13;;;1.00;99.90;;;;;;5080351;28;20206;-93
2022/01/09 11:56:58;;;;;;;1.40;1.20;;;1.00;99.90;;;;;;5080241;28;20218;-93
2022/01/09 11:59:59;;;;;;;2.60;1.10;;;1.00;99.90;;;;;;5080676;28;20239;-94
2022/01/09 12:02:38;;;;;;;2.07;1.70;;;1.00;99.90;;;;;;5060415;28;20708;-93
2022/01/09 12:05:12;;;;;;;2.00;1.20;;;1.00;99.90;;;;;;5060320;28;20216;-93
2022/01/09 12:08:08;;;;;;;1.40;1.23;;;1.00;99.90;;;;;;5070352;28;20281;-94
2022/01/09 12:10:41;;;;;;;1.60;1.10;;;1.10;99.90;;;;;;5078786;28;20212;-94
2022/01/09 12:13:41;;;;;;;1.93;1.33;;;1.00;99.90;;;;;;5079654;28;20207;-94
2022/01/09 12:16:51;;;;;;;2.37;0.97;;;1.00;99.90;;;;;;5080285;28;20207;-94
2022/01/09 12:19:58;;;;;;;1.10;1.00;;;1.00;99.90;;;;;;5080447;28;20238;-93
2022/01/09 12:23:01;;;;;;;1.50;1.30;;;1.00;99.90;;;;;;5079224;28;20283;-93
2022/01/09 12:25:51;;;;;;;1.70;1.33;;;0.90;99.90;;;;;;5059208;28;20319;-93
2022/01/09 12:28:44;;;;;;;3.57;1.40;;;0.90;99.90;;;;;;5057466;28;20327;-94
2022/01/09 12:31:31;;;;;;;1.77;1.10;;;0.90;99.90;;;;;;5059770;28;20208;-93
2022/01/09 12:34:02;;;;;;;2.27;1.27;;;0.90;99.90;;;;;;5059559;28;20281;-93
2022/01/09 12:36:34;;;;;;;2.07;1.10;;;0.90;99.90;;;;;;5070044;28;20222;-94
2022/01/09 12:39:08;;;;;;;4.83;1.23;;;0.90;99.90;;;;;;5098537;28;20191;-93
2022/01/09 12:41:42;;;;;;;1.63;1.03;;;0.90;99.90;;;;;;5097098;28;20224;-92
2022/01/09 12:44:15;;;;;;;1.20;1.00;;;0.90;99.90;;;;;;5092577;28;20203;-92
2022/01/09 12:46:48;;;;;;;1.57;1.10;;;1.00;99.90;;;;;;5090163;28;20210;-93
2022/01/09 12:49:19;;;;;;;1.20;1.10;;;1.00;99.90;;;;;;5080942;28;20215;-92
2022/01/09 12:51:58;;;;;;;1.53;1.20;;;1.00;99.90;;;;;;5080340;28;20294;-93
2022/01/09 12:54:32;;;;;;;1.87;1.10;;;1.10;99.90;;;;;;5079033;28;20245;-94
2022/01/09 12:57:04;;;;;;;1.50;1.00;;;1.10;99.90;;;;;;5079639;28;20204;-93
2022/01/09 12:59:35;;;;;;;2.20;1.20;;;1.10;99.90;;;;;;5078190;28;20210;-94
2022/01/09 13:02:11;;;;;;;3.00;1.10;;;1.10;99.90;;;;;;5077938;28;20231;-94
2022/01/09 13:04:43;;;;;;;1.20;0.97;;;1.10;99.90;;;;;;5080538;28;20254;-93
2022/01/09 13:07:16;;;;;;;1.97;1.23;;;1.10;99.90;;;;;;5076817;28;20229;-93
2022/01/09 13:09:49;;;;;;;1.57;1.00;;;1.20;99.90;;;;;;5078061;28;20247;-92
2022/01/09 13:12:22;;;;;;;1.13;1.00;;;1.20;99.90;;;;;;5077561;28;20235;-94
2022/01/09 13:14:53;;;;;;;1.67;1.10;;;1.20;99.90;;;;;;5077935;28;20239;-94
2022/01/09 13:17:24;;;;;;;1.73;1.03;;;1.20;99.90;;;;;;5077584;28;20229;-93
2022/01/09 13:20:01;;;;;;;0.87;0.87;;;1.30;99.90;;;;;;5077689;28;20233;-92
2022/01/09 13:22:33;;;;;;;2.03;1.13;;;1.30;99.90;;;;;;5076724;28;20282;-93
2022/01/09 13:25:09;;;;;;;1.17;1.00;;;1.30;99.90;;;;;;5077479;28;20617;-93
2022/01/09 13:27:40;;;;;;;1.27;1.07;;;1.30;99.90;;;;;;5076283;28;20223;-93
2022/01/09 13:30:11;;;;;;;1.60;1.13;;;1.30;99.90;;;;;;5077371;28;20330;-92
2022/01/09 13:32:42;;;;;;;0.87;0.87;;;1.30;99.90;;;;;;5084983;28;20257;-94
2022/01/09 13:35:13;;;;;;;2.00;0.73;;;1.30;99.90;;;;;;5079036;28;20619;-94
2022/01/09 13:37:44;;;;;;;1.37;0.80;;;1.30;99.90;;;;;;5076395;28;20261;-93